Saint Peters, Prince Edward Island

7:09 AM ADT on August 30, 2015 (GMT -0300)
Cardigan Head | | Change Station
CLOSE
Current Station
Personal Weather Station
Location: Cardigan, PRINCE EDWARD ISLAND
Elevation: 45 ft
Nearby Weather Stations

Elev 45 ft 46.25 °N, 62.68 °W | Updated 9 minutes ago

Overcast
Overcast
61.3 °F
Feels Like 61.3 °F
N
1.0
Wind Variable Wind from West
Gusts 1.0 mph

Today is forecast to be nearly the same temperature as yesterday.

Today
High -- | Low -- °F
--% Chance of Precip.
Yesterday
High -- | Low -- °F
Precip. -- in
6:27 AM 7:53 PM
Full, 99% visible
Pressure 29.98 in
Visibility 15.0 miles
Clouds Few 2000 ft
Few 7000 ft
Mostly Cloudy 15000 ft
Overcast 25000 ft
Dew Point 60 °F
Humidity 96%
Rainfall 0.00 in
Snow Depth Not available.
UV 0 out of 12
Pollen Not available.
Air Quality Not available.
Flu Activity Not available.
METAR CYYG 301000Z 22007KT 15SM FEW020 FEW070 BKN150 OVC250 17/16 A2998 RMK SC1AC1AC4CI2 SLP151 DENSITY ALT 300FT
Pressure 29.98 in
Visibility 15.0 miles
Clouds Few 2000 ft
Few 7000 ft
Mostly Cloudy 15000 ft
Overcast 25000 ft
Dew Point 60 °F
Humidity 96%
Rainfall 0.00 in
Snow Depth Not available.
UV 0 out of 12
Pollen Not available.
Air Quality Not available.
Flu Activity Not available.
METAR CYYG 301000Z 22007KT 15SM FEW020 FEW070 BKN150 OVC250 17/16 A2998 RMK SC1AC1AC4CI2 SLP151 DENSITY ALT 300FT

10-Day Weather Forecast

×

Almanac

Astronomy

Aug. 30, 2015 Rise Set
Actual Time
Civil Twilight
Nautical Twilight
Astronomical Twilight
Moon
Length of Visible Light
Length of Day
Tomorrow will be .
, % of the Moon is Illuminated

Today's Extremes

Country Highs Country Lows

Community

WunderPhotos

Upload Photos

1,850,919 photos uploaded!

WunderBlogs® & News

Nearby

Air Quality

  Air Quality AQ Index Pollutant
Not available.

Snow Depth

Station Depth Elevation

Earthquake Activity

City Distance Mag. Time & Date
Minimum magnitude displayed is 2.5.

Coastal Water Temperatures

Place Temperature

Stations

Nearby Weather Stations

Station Location Temp. Windchill Dew Point Humidity Wind Precip. Elev Updated Type